createdAt,value
2018-04-28T00:00:53.932Z,8.00
2018-04-28T00:01:53.917Z,8.00
2018-04-28T00:02:53.914Z,8.00
2018-04-28T00:03:53.911Z,8.00
2018-04-28T00:04:53.923Z,8.00
2018-04-28T00:05:53.915Z,8.00
2018-04-28T00:06:53.901Z,8.00
2018-04-28T00:07:53.979Z,8.00
2018-04-28T00:08:53.897Z,8.00
2018-04-28T00:09:53.893Z,8.00
2018-04-28T00:10:53.889Z,8.00
2018-04-28T00:11:53.897Z,8.00
2018-04-28T00:12:53.882Z,8.00
2018-04-28T00:13:53.878Z,8.00
2018-04-28T00:14:53.877Z,8.00
2018-04-28T00:15:53.947Z,8.00
2018-04-28T00:16:53.876Z,8.00
2018-04-28T00:17:53.865Z,8.00
2018-04-28T00:18:53.896Z,8.00
2018-04-28T00:19:53.860Z,8.00
2018-04-28T00:20:53.865Z,8.00
2018-04-28T00:21:53.854Z,8.00
2018-04-28T00:22:53.854Z,8.00
2018-04-28T00:23:53.847Z,8.00
2018-04-28T00:24:53.846Z,8.00
2018-04-28T00:25:53.842Z,8.00
2018-04-28T00:26:55.467Z,8.00
2018-04-28T00:27:53.850Z,8.00
2018-04-28T00:28:53.832Z,8.00
2018-04-28T00:29:53.827Z,8.00
2018-04-28T00:30:53.828Z,8.00
2018-04-28T00:31:53.829Z,8.00
2018-04-28T00:32:53.819Z,8.00
2018-04-28T00:33:53.822Z,8.00
2018-04-28T00:34:53.824Z,8.00
2018-04-28T00:35:53.812Z,8.00
2018-04-28T00:36:53.811Z,8.00
2018-04-28T00:37:53.812Z,8.00
2018-04-28T00:38:53.819Z,8.00
2018-04-28T00:39:53.824Z,8.00
2018-04-28T00:40:53.821Z,8.00
2018-04-28T00:41:53.794Z,8.00
2018-04-28T00:42:53.786Z,8.00
2018-04-28T00:43:53.786Z,8.00
2018-04-28T00:44:53.791Z,8.00
2018-04-28T00:45:53.775Z,8.00
2018-04-28T00:46:54.412Z,8.00
2018-04-28T00:47:53.769Z,8.00
2018-04-28T00:48:53.766Z,8.00
2018-04-28T00:49:53.761Z,8.00
2018-04-28T00:50:53.761Z,8.00
2018-04-28T00:51:53.760Z,8.00
2018-04-28T00:52:53.751Z,8.00
2018-04-28T00:53:53.749Z,8.00
2018-04-28T00:54:53.744Z,8.00
2018-04-28T00:55:53.756Z,8.00
2018-04-28T00:56:53.740Z,8.00
2018-04-28T00:57:53.734Z,8.00
2018-04-28T00:58:53.736Z,8.00
2018-04-28T00:59:53.773Z,8.00
2018-04-28T01:00:53.724Z,8.00
2018-04-28T01:01:53.724Z,8.00
2018-04-28T01:02:53.721Z,8.00
2018-04-28T01:03:53.719Z,8.00
2018-04-28T01:04:53.720Z,8.00
2018-04-28T01:05:53.720Z,8.00
2018-04-28T01:06:53.710Z,8.00
2018-04-28T01:07:53.701Z,8.00
2018-04-28T01:08:53.729Z,8.00
2018-04-28T01:09:53.693Z,8.00
2018-04-28T01:10:53.692Z,8.00
2018-04-28T01:11:53.690Z,8.00
2018-04-28T01:12:53.687Z,8.00
2018-04-28T01:13:53.691Z,8.00
2018-04-28T01:14:53.679Z,8.00
2018-04-28T01:15:53.681Z,8.00
2018-04-28T01:16:53.673Z,8.00
2018-04-28T01:17:53.671Z,8.00
2018-04-28T01:18:53.665Z,8.00
2018-04-28T01:19:53.682Z,8.00
2018-04-28T01:20:53.667Z,8.00
2018-04-28T01:21:53.667Z,8.00
2018-04-28T01:22:53.654Z,8.00
2018-04-28T01:23:55.476Z,8.00
2018-04-28T01:24:53.713Z,8.00
2018-04-28T01:25:53.788Z,8.00
2018-04-28T01:26:53.683Z,8.00
2018-04-28T01:27:53.636Z,8.00
2018-04-28T01:28:53.666Z,8.00
2018-04-28T01:29:53.636Z,8.00
2018-04-28T01:30:53.626Z,8.00
2018-04-28T01:31:53.621Z,8.00
2018-04-28T01:32:53.653Z,8.00
2018-04-28T01:33:53.614Z,8.00
2018-04-28T01:34:53.610Z,8.00
2018-04-28T01:35:53.607Z,8.00
2018-04-28T01:36:53.603Z,8.00
2018-04-28T01:37:53.601Z,8.00
2018-04-28T01:38:53.601Z,8.00
2018-04-28T01:39:53.599Z,8.00
2018-04-28T01:40:53.596Z,8.00
2018-04-28T01:41:53.589Z,8.00
2018-04-28T01:42:53.583Z,8.00
2018-04-28T01:43:53.578Z,8.00
2018-04-28T01:44:53.588Z,8.00
2018-04-28T01:45:53.582Z,8.00
2018-04-28T01:46:53.570Z,8.00
2018-04-28T01:47:53.647Z,8.00
2018-04-28T01:48:53.564Z,8.00
2018-04-28T01:49:53.558Z,8.00
2018-04-28T01:50:53.583Z,8.00
2018-04-28T01:51:53.555Z,8.00
2018-04-28T01:52:53.550Z,8.00
2018-04-28T01:53:53.547Z,8.00
2018-04-28T01:54:53.544Z,8.00
2018-04-28T01:55:53.537Z,8.00
2018-04-28T01:56:53.540Z,8.00
2018-04-28T01:57:53.538Z,8.00
2018-04-28T01:58:53.527Z,8.00
2018-04-28T01:59:53.552Z,8.00
2018-04-28T02:00:53.519Z,8.00
2018-04-28T02:01:53.517Z,8.00
2018-04-28T02:02:53.514Z,8.00
2018-04-28T02:03:53.511Z,8.00
2018-04-28T02:04:53.508Z,8.00
2018-04-28T02:05:53.502Z,8.00
2018-04-28T02:06:53.499Z,8.00
2018-04-28T02:07:53.506Z,8.00
2018-04-28T02:08:53.522Z,8.00
2018-04-28T02:09:53.487Z,8.00
2018-04-28T02:10:53.486Z,8.00
2018-04-28T02:11:53.481Z,8.00
2018-04-28T02:12:53.478Z,8.00
2018-04-28T02:13:53.475Z,8.00
2018-04-28T02:14:53.473Z,8.00
2018-04-28T02:15:53.467Z,8.00
2018-04-28T02:16:53.476Z,8.00
2018-04-28T02:17:53.462Z,8.00
2018-04-28T02:18:53.669Z,8.00
2018-04-28T02:19:53.452Z,8.00
2018-04-28T02:20:53.451Z,8.00
2018-04-28T02:21:53.448Z,8.00
2018-04-28T02:22:53.443Z,8.00
2018-04-28T02:23:53.442Z,8.00
2018-04-28T02:24:53.440Z,8.00
2018-04-28T02:25:53.436Z,8.00
2018-04-28T02:26:53.430Z,8.00
2018-04-28T02:27:53.428Z,8.00
2018-04-28T02:28:53.423Z,8.00
2018-04-28T02:29:53.422Z,8.00
2018-04-28T02:30:53.416Z,8.00
2018-04-28T02:31:53.414Z,8.00
2018-04-28T02:32:53.408Z,8.00
2018-04-28T02:33:53.415Z,8.00
2018-04-28T02:34:53.402Z,8.00
2018-04-28T02:35:53.397Z,8.00
2018-04-28T02:36:53.391Z,8.00
2018-04-28T02:37:53.418Z,8.00
2018-04-28T02:38:53.385Z,8.00
2018-04-28T02:39:53.382Z,8.00
2018-04-28T02:40:53.385Z,8.00
2018-04-28T02:41:53.374Z,8.00
2018-04-28T02:42:53.370Z,8.00
2018-04-28T02:43:53.366Z,8.00
2018-04-28T02:44:53.364Z,8.00
2018-04-28T02:45:53.367Z,8.00
2018-04-28T02:46:53.353Z,8.00
2018-04-28T02:47:53.352Z,8.00
2018-04-28T02:48:53.353Z,8.00
2018-04-28T02:49:54.048Z,8.00
2018-04-28T02:50:53.343Z,8.00
2018-04-28T02:51:53.345Z,8.00
2018-04-28T02:52:53.360Z,8.00
2018-04-28T02:53:53.330Z,8.00
2018-04-28T02:54:53.327Z,8.00
2018-04-28T02:55:53.322Z,8.00
2018-04-28T02:56:53.327Z,8.00
2018-04-28T02:57:53.320Z,8.00
2018-04-28T02:58:53.318Z,8.00
2018-04-28T02:59:53.307Z,8.00
2018-04-28T03:00:53.305Z,8.00
2018-04-28T03:01:53.300Z,8.00
2018-04-28T03:02:53.304Z,8.00
2018-04-28T03:03:53.292Z,8.00
2018-04-28T03:04:53.288Z,8.00
2018-04-28T03:05:53.289Z,8.00
2018-04-28T03:06:53.287Z,8.00
2018-04-28T03:07:53.275Z,8.00
2018-04-28T03:08:53.274Z,8.00
2018-04-28T03:09:53.268Z,8.00
2018-04-28T03:10:53.266Z,8.00
2018-04-28T03:11:53.261Z,8.00
2018-04-28T03:12:53.257Z,8.00
2018-04-28T03:13:53.259Z,8.00
2018-04-28T03:14:53.249Z,8.00
2018-04-28T03:15:53.247Z,8.00
2018-04-28T03:16:53.248Z,8.00
2018-04-28T03:17:53.263Z,8.00
2018-04-28T03:18:53.243Z,8.00
2018-04-28T03:19:53.233Z,8.00
2018-04-28T03:20:53.226Z,8.00
2018-04-28T03:21:53.222Z,4.00
2018-04-28T03:22:53.218Z,4.00
2018-04-28T03:23:53.238Z,8.00
2018-04-28T03:24:53.211Z,8.00
2018-04-28T03:25:53.212Z,8.00
2018-04-28T03:26:53.202Z,8.00
2018-04-28T03:27:53.203Z,8.00
2018-04-28T03:28:53.226Z,8.00
2018-04-28T03:29:53.193Z,8.00
2018-04-28T03:30:53.188Z,8.00
2018-04-28T03:31:53.186Z,4.00
2018-04-28T03:32:53.179Z,8.00
2018-04-28T03:33:53.176Z,8.00
2018-04-28T03:34:53.175Z,8.00
2018-04-28T03:35:53.172Z,12.00
2018-04-28T03:36:53.163Z,8.00
2018-04-28T03:37:53.162Z,12.00
2018-04-28T03:38:53.164Z,16.00
2018-04-28T03:39:53.150Z,12.00
2018-04-28T03:40:53.149Z,16.00
2018-04-28T03:41:53.143Z,20.00
2018-04-28T03:42:53.138Z,20.00
2018-04-28T03:43:53.135Z,24.00
2018-04-28T03:44:53.129Z,24.00
2018-04-28T03:45:53.126Z,28.00
2018-04-28T03:46:53.123Z,32.00
2018-04-28T03:47:53.117Z,36.00
2018-04-28T03:48:53.113Z,40.00
2018-04-28T03:49:53.108Z,44.00
2018-04-28T03:50:53.107Z,48.00
2018-04-28T03:51:53.104Z,52.00
2018-04-28T03:52:53.098Z,60.00
2018-04-28T03:53:53.094Z,68.00
2018-04-28T03:54:53.099Z,72.00
2018-04-28T03:55:53.102Z,80.00
2018-04-28T03:56:53.084Z,84.00
2018-04-28T03:57:53.076Z,92.00
2018-04-28T03:58:53.071Z,100.00
2018-04-28T03:59:53.068Z,108.00
2018-04-28T04:00:53.067Z,116.00
2018-04-28T04:01:53.063Z,124.00
2018-04-28T04:02:53.054Z,132.00
2018-04-28T04:03:53.051Z,140.00
2018-04-28T04:04:53.048Z,152.00
2018-04-28T04:05:53.049Z,164.00
2018-04-28T04:06:53.037Z,172.00
2018-04-28T04:07:53.048Z,184.00
2018-04-28T04:08:53.034Z,196.00
2018-04-28T04:09:53.032Z,204.00
2018-04-28T04:10:53.027Z,216.00
2018-04-28T04:11:53.019Z,232.00
2018-04-28T04:12:53.016Z,240.00
2018-04-28T04:13:53.008Z,256.00
2018-04-28T04:14:53.010Z,268.00
2018-04-28T04:15:53.001Z,280.00
2018-04-28T04:16:53.008Z,292.00
2018-04-28T04:17:52.993Z,308.00
2018-04-28T04:18:52.993Z,320.00
2018-04-28T04:19:52.983Z,340.00
2018-04-28T04:20:52.982Z,368.00
2018-04-28T04:21:54.505Z,400.00
2018-04-28T04:22:52.975Z,424.00
2018-04-28T04:23:52.969Z,452.00
2018-04-28T04:24:52.963Z,480.00
2018-04-28T04:25:52.955Z,508.00
2018-04-28T04:26:52.957Z,532.00
2018-04-28T04:27:52.951Z,560.00
2018-04-28T04:28:52.976Z,592.00
2018-04-28T04:29:52.938Z,624.00
2018-04-28T04:30:52.937Z,656.00
2018-04-28T04:31:52.935Z,688.00
2018-04-28T04:32:52.928Z,728.00
2018-04-28T04:33:52.922Z,768.00
2018-04-28T04:34:52.918Z,816.00
2018-04-28T04:35:52.919Z,868.00
2018-04-28T04:36:52.909Z,924.00
2018-04-28T04:37:52.903Z,1156.00
2018-04-28T04:38:52.899Z,1484.00
2018-04-28T04:39:52.900Z,1800.00
2018-04-28T04:40:52.893Z,2384.00
2018-04-28T04:41:52.887Z,2820.00
2018-04-28T04:42:52.884Z,3008.00
2018-04-28T04:43:52.879Z,3144.00
2018-04-28T04:44:52.875Z,3472.00
2018-04-28T04:45:52.871Z,3612.00
2018-04-28T04:46:52.870Z,2980.00
2018-04-28T04:47:52.862Z,2300.00
2018-04-28T04:48:52.861Z,2828.00
2018-04-28T04:49:52.856Z,3516.00
2018-04-28T04:50:52.851Z,2600.00
2018-04-28T04:51:52.847Z,1968.00
2018-04-28T04:52:53.612Z,1908.00
2018-04-28T04:53:52.845Z,1980.00
2018-04-28T04:54:52.836Z,2048.00
2018-04-28T04:55:52.834Z,2132.00
2018-04-28T04:56:52.858Z,2208.00
2018-04-28T04:57:52.826Z,2296.00
2018-04-28T04:58:52.823Z,2380.00
2018-04-28T04:59:52.819Z,2480.00
2018-04-28T05:00:52.818Z,2568.00
2018-04-28T05:01:52.813Z,2668.00
2018-04-28T05:02:52.810Z,2784.00
2018-04-28T05:03:52.819Z,2892.00
2018-04-28T05:04:52.803Z,3000.00
2018-04-28T05:05:52.800Z,3088.00
2018-04-28T05:06:52.807Z,3184.00
2018-04-28T05:07:52.793Z,3288.00
2018-04-28T05:08:52.795Z,3388.00
2018-04-28T05:09:52.786Z,3488.00
2018-04-28T05:10:52.790Z,3592.00
2018-04-28T05:11:52.788Z,3716.00
2018-04-28T05:12:52.849Z,3764.00
2018-04-28T05:13:52.775Z,3940.00
2018-04-28T05:14:52.805Z,4072.00
2018-04-28T05:15:52.770Z,4200.00
2018-04-28T05:16:52.770Z,4300.00
2018-04-28T05:17:52.763Z,4368.00
2018-04-28T05:18:52.760Z,4460.00
2018-04-28T05:19:52.759Z,4588.00
2018-04-28T05:20:52.782Z,4616.00
2018-04-28T05:21:52.752Z,4852.00
2018-04-28T05:22:52.749Z,4956.00
2018-04-28T05:23:52.745Z,5132.00
2018-04-28T05:24:52.747Z,7460.00
2018-04-28T05:25:52.756Z,11424.00
2018-04-28T05:26:52.741Z,13952.00
2018-04-28T05:27:52.752Z,12896.00
2018-04-28T05:28:52.739Z,10204.00
2018-04-28T05:29:52.731Z,7592.00
2018-04-28T05:30:52.730Z,5880.00
2018-04-28T05:31:52.731Z,5820.00
2018-04-28T05:32:52.727Z,7784.00
2018-04-28T05:33:52.724Z,10980.00
2018-04-28T05:34:52.727Z,9372.00
2018-04-28T05:35:52.751Z,8332.00
2018-04-28T05:36:52.722Z,10068.00
2018-04-28T05:37:52.725Z,9500.00
2018-04-28T05:38:52.736Z,8000.00
2018-04-28T05:39:52.732Z,10796.00
2018-04-28T05:40:52.720Z,10844.00
2018-04-28T05:41:52.714Z,9440.00
2018-04-28T05:42:52.715Z,17280.00
2018-04-28T05:43:52.713Z,15808.00
2018-04-28T05:44:52.714Z,8968.00
2018-04-28T05:45:52.712Z,5600.00
2018-04-28T05:46:52.711Z,5824.00
2018-04-28T05:47:52.711Z,5340.00
2018-04-28T05:48:52.712Z,5456.00
2018-04-28T05:49:52.710Z,5808.00
2018-04-28T05:50:52.711Z,5688.00
2018-04-28T05:51:52.708Z,5752.00
2018-04-28T05:52:52.711Z,5728.00
2018-04-28T05:53:52.716Z,5648.00
2018-04-28T05:54:52.709Z,5676.00
2018-04-28T05:55:52.707Z,5560.00
2018-04-28T05:56:52.706Z,5424.00
2018-04-28T05:57:52.771Z,5284.00
2018-04-28T05:58:52.705Z,5368.00
2018-04-28T05:59:52.716Z,4508.00
2018-04-28T06:00:52.717Z,4948.00
2018-04-28T06:01:52.707Z,5124.00
2018-04-28T06:02:52.717Z,5116.00
2018-04-28T06:03:52.703Z,4896.00
2018-04-28T06:04:52.701Z,4644.00
2018-04-28T06:05:52.715Z,5212.00
2018-04-28T06:06:52.707Z,5040.00
2018-04-28T06:07:52.710Z,4880.00
2018-04-28T06:08:52.698Z,4828.00
2018-04-28T06:09:52.697Z,4892.00
2018-04-28T06:10:52.700Z,4052.00
2018-04-28T06:11:52.713Z,4916.00
2018-04-28T06:12:52.694Z,4784.00
2018-04-28T06:13:52.693Z,4788.00
2018-04-28T06:14:52.696Z,4716.00
2018-04-28T06:15:52.694Z,4560.00
2018-04-28T06:16:52.691Z,4488.00
2018-04-28T06:17:52.690Z,4228.00
2018-04-28T06:18:52.689Z,2420.00
2018-04-28T06:19:52.691Z,4052.00
2018-04-28T06:20:52.691Z,3876.00
2018-04-28T06:21:52.693Z,2684.00
2018-04-28T06:22:52.724Z,3836.00
2018-04-28T06:23:52.686Z,3608.00
2018-04-28T06:24:52.771Z,3356.00
2018-04-28T06:25:52.693Z,3084.00
2018-04-28T06:26:52.697Z,2788.00
2018-04-28T06:27:52.684Z,2464.00
2018-04-28T06:28:52.686Z,2136.00
2018-04-28T06:29:52.682Z,1876.00
2018-04-28T06:30:52.680Z,1688.00
2018-04-28T06:31:52.682Z,1552.00
2018-04-28T06:32:52.680Z,1444.00
2018-04-28T06:33:52.677Z,1348.00
2018-04-28T06:34:52.677Z,1276.00
2018-04-28T06:35:52.714Z,1212.00
2018-04-28T06:36:52.684Z,1188.00
2018-04-28T06:37:52.678Z,1164.00
2018-04-28T06:38:52.677Z,1152.00
2018-04-28T06:39:52.676Z,1144.00
2018-04-28T06:40:52.677Z,1128.00
2018-04-28T06:41:52.676Z,1124.00
2018-04-28T06:42:52.694Z,1124.00
2018-04-28T06:43:52.671Z,1112.00
2018-04-28T06:44:52.671Z,1108.00
2018-04-28T06:45:52.669Z,1108.00
2018-04-28T06:46:52.668Z,1100.00
2018-04-28T06:47:52.668Z,1092.00
2018-04-28T06:48:52.668Z,1088.00
2018-04-28T06:49:52.674Z,1084.00
2018-04-28T06:50:52.680Z,1080.00
2018-04-28T06:51:52.665Z,1076.00
2018-04-28T06:52:52.663Z,1076.00
2018-04-28T06:53:52.676Z,1072.00
2018-04-28T06:54:52.663Z,1076.00
2018-04-28T06:55:53.150Z,1076.00
2018-04-28T06:56:52.661Z,1072.00
2018-04-28T06:57:52.660Z,1072.00
2018-04-28T06:58:52.668Z,1068.00
2018-04-28T06:59:52.664Z,1064.00
2018-04-28T07:00:52.673Z,1060.00
2018-04-28T07:01:52.684Z,1060.00
2018-04-28T07:02:52.657Z,1060.00
2018-04-28T07:03:52.656Z,1056.00
2018-04-28T07:04:52.669Z,1056.00
2018-04-28T07:05:52.659Z,1052.00
2018-04-28T07:06:52.655Z,1052.00
2018-04-28T07:07:52.655Z,1052.00
2018-04-28T07:08:52.661Z,1056.00
2018-04-28T07:09:52.654Z,1044.00
2018-04-28T07:10:52.745Z,1040.00
2018-04-28T07:11:52.652Z,1044.00
2018-04-28T07:12:52.658Z,1040.00
2018-04-28T07:13:52.651Z,1040.00
2018-04-28T07:14:52.656Z,1036.00
2018-04-28T07:15:52.703Z,1036.00
2018-04-28T07:16:52.656Z,1036.00
2018-04-28T07:17:52.651Z,1036.00
2018-04-28T07:18:52.655Z,1036.00
2018-04-28T07:19:52.655Z,1036.00
2018-04-28T07:20:52.650Z,1036.00
2018-04-28T07:21:52.679Z,1032.00
2018-04-28T07:22:52.674Z,1032.00
2018-04-28T07:23:52.652Z,1032.00
2018-04-28T07:24:52.653Z,1028.00
2018-04-28T07:25:52.649Z,1028.00
2018-04-28T07:26:53.558Z,1028.00
2018-04-28T07:27:52.648Z,1032.00
2018-04-28T07:28:52.650Z,1028.00
2018-04-28T07:29:52.653Z,1028.00
2018-04-28T07:30:52.652Z,1024.00
2018-04-28T07:31:52.662Z,1020.00
2018-04-28T07:32:52.654Z,1020.00
2018-04-28T07:33:52.652Z,1016.00
2018-04-28T07:34:52.679Z,1016.00
2018-04-28T07:35:52.654Z,1012.00
2018-04-28T07:36:52.661Z,1012.00
2018-04-28T07:37:52.655Z,1012.00
2018-04-28T07:38:52.653Z,1016.00
2018-04-28T07:39:52.653Z,1012.00
2018-04-28T07:40:52.655Z,1012.00
2018-04-28T07:41:52.651Z,1008.00
2018-04-28T07:42:52.652Z,1016.00
2018-04-28T07:43:52.664Z,1012.00
2018-04-28T07:44:52.665Z,1016.00
2018-04-28T07:45:52.658Z,1016.00
2018-04-28T07:46:52.681Z,1020.00
2018-04-28T07:47:52.654Z,1016.00
2018-04-28T07:48:52.660Z,1020.00
2018-04-28T07:49:52.690Z,1020.00
2018-04-28T07:50:52.656Z,1024.00
2018-04-28T07:51:52.656Z,1024.00
2018-04-28T07:52:52.661Z,1032.00
2018-04-28T07:53:52.664Z,1032.00
2018-04-28T07:54:52.659Z,1040.00
2018-04-28T07:55:52.659Z,1040.00
2018-04-28T07:56:52.664Z,1044.00
2018-04-28T07:57:52.659Z,1048.00
2018-04-28T07:58:52.678Z,1048.00
2018-04-28T07:59:52.673Z,1048.00
2018-04-28T08:00:52.663Z,1048.00
2018-04-28T08:01:52.663Z,1052.00
2018-04-28T08:02:52.665Z,1052.00
2018-04-28T08:03:52.665Z,1060.00
2018-04-28T08:04:52.672Z,1064.00
2018-04-28T08:05:52.672Z,1064.00
2018-04-28T08:06:52.678Z,1068.00
2018-04-28T08:07:52.668Z,1068.00
2018-04-28T08:08:52.746Z,1144.00
2018-04-28T08:09:52.678Z,1080.00
2018-04-28T08:10:52.679Z,1084.00
2018-04-28T08:11:52.672Z,1100.00
2018-04-28T08:12:52.676Z,1100.00
2018-04-28T08:13:52.684Z,1112.00
2018-04-28T08:14:52.680Z,1116.00
2018-04-28T08:15:52.675Z,1120.00
2018-04-28T08:16:52.678Z,1124.00
2018-04-28T08:17:52.680Z,1128.00
2018-04-28T08:18:52.679Z,1148.00
2018-04-28T08:19:52.681Z,1156.00
2018-04-28T08:20:52.687Z,1172.00
2018-04-28T08:21:52.697Z,1180.00
2018-04-28T08:22:52.691Z,1192.00
2018-04-28T08:23:52.687Z,1204.00
2018-04-28T08:24:52.688Z,1216.00
2018-04-28T08:25:52.691Z,1232.00
2018-04-28T08:26:52.689Z,1240.00
2018-04-28T08:27:52.690Z,1248.00
2018-04-28T08:28:52.699Z,1264.00
2018-04-28T08:29:52.761Z,1288.00
2018-04-28T08:30:52.703Z,1316.00
2018-04-28T08:31:52.712Z,1316.00
2018-04-28T08:32:52.697Z,1316.00
2018-04-28T08:33:52.699Z,1332.00
2018-04-28T08:34:52.703Z,1344.00
2018-04-28T08:35:52.702Z,1356.00
2018-04-28T08:36:52.757Z,1372.00
2018-04-28T08:37:52.705Z,1388.00
2018-04-28T08:38:52.708Z,1408.00
2018-04-28T08:39:52.708Z,1432.00
2018-04-28T08:40:52.712Z,1452.00
2018-04-28T08:41:52.713Z,1476.00
2018-04-28T08:42:52.715Z,1480.00
2018-04-28T08:43:52.715Z,1524.00
2018-04-28T08:44:52.719Z,1532.00
2018-04-28T08:45:52.718Z,1572.00
2018-04-28T08:46:52.724Z,1588.00
2018-04-28T08:47:52.730Z,1620.00
2018-04-28T08:48:52.730Z,1656.00
2018-04-28T08:49:52.730Z,1692.00
2018-04-28T08:50:52.748Z,1724.00
2018-04-28T08:51:52.739Z,3312.00
2018-04-28T08:52:52.731Z,8724.00
2018-04-28T08:53:52.739Z,12556.00
2018-04-28T08:54:52.745Z,16336.00
2018-04-28T08:55:52.737Z,23552.00
2018-04-28T08:56:52.774Z,25984.00
2018-04-28T08:57:52.742Z,26304.00
2018-04-28T08:58:52.756Z,27744.00
2018-04-28T08:59:52.752Z,27040.00
2018-04-28T09:00:52.757Z,24960.00
2018-04-28T09:01:52.769Z,23680.00
2018-04-28T09:02:52.767Z,24096.00
2018-04-28T09:03:52.778Z,25728.00
2018-04-28T09:04:52.773Z,28544.00
2018-04-28T09:05:52.780Z,31168.00
2018-04-28T09:06:52.787Z,31552.00
2018-04-28T09:07:52.804Z,30976.00
2018-04-28T09:08:52.801Z,31584.00
2018-04-28T09:09:52.811Z,32352.00
2018-04-28T09:10:52.816Z,32448.00
2018-04-28T09:11:52.830Z,27040.00
2018-04-28T09:12:52.837Z,17856.00
2018-04-28T09:13:52.840Z,8952.00
2018-04-28T09:14:52.856Z,3148.00
2018-04-28T09:15:52.857Z,2108.00
2018-04-28T09:16:52.873Z,2064.00
2018-04-28T09:17:52.876Z,2028.00
2018-04-28T09:18:52.886Z,2024.00
2018-04-28T09:19:52.894Z,2020.00
2018-04-28T09:20:52.900Z,2020.00
2018-04-28T09:21:52.910Z,2028.00
2018-04-28T09:22:52.936Z,2020.00
2018-04-28T09:23:53.578Z,2020.00
2018-04-28T09:24:53.410Z,2028.00
2018-04-28T09:25:52.939Z,2036.00
2018-04-28T09:26:52.944Z,2044.00
2018-04-28T09:27:52.957Z,2052.00
2018-04-28T09:28:52.958Z,2056.00
2018-04-28T09:29:53.092Z,2060.00
2018-04-28T09:30:52.972Z,2060.00
2018-04-28T09:31:53.000Z,2060.00
2018-04-28T09:32:52.999Z,2068.00
2018-04-28T09:33:52.994Z,2064.00
2018-04-28T09:34:52.994Z,2068.00
2018-04-28T09:35:53.005Z,2072.00
2018-04-28T09:36:53.006Z,2068.00
2018-04-28T09:37:53.010Z,2092.00
2018-04-28T09:38:53.016Z,2096.00
2018-04-28T09:39:53.024Z,2100.00
2018-04-28T09:40:53.030Z,2100.00
2018-04-28T09:41:53.034Z,2100.00
2018-04-28T09:42:53.037Z,2096.00
2018-04-28T09:43:53.051Z,2084.00
2018-04-28T09:44:53.053Z,2084.00
2018-04-28T09:45:53.052Z,2084.00
2018-04-28T09:46:53.059Z,2080.00
2018-04-28T09:47:53.060Z,2088.00
2018-04-28T09:48:53.064Z,2096.00
2018-04-28T09:49:53.069Z,2104.00
2018-04-28T09:50:53.072Z,2112.00
2018-04-28T09:51:53.077Z,2116.00
2018-04-28T09:52:53.165Z,2112.00
2018-04-28T09:53:53.084Z,2120.00
2018-04-28T09:54:53.098Z,2128.00
2018-04-28T09:55:53.094Z,2128.00
2018-04-28T09:56:53.111Z,2120.00
2018-04-28T09:57:53.105Z,2128.00
2018-04-28T09:58:53.183Z,2136.00
2018-04-28T09:59:53.127Z,2144.00
2018-04-28T10:00:53.505Z,2144.00
2018-04-28T10:01:53.134Z,2136.00
2018-04-28T10:02:53.125Z,2148.00
2018-04-28T10:03:53.133Z,2160.00
2018-04-28T10:04:53.131Z,2168.00
2018-04-28T10:05:53.172Z,2172.00
2018-04-28T10:06:53.141Z,2188.00
2018-04-28T10:07:53.145Z,2200.00
2018-04-28T10:08:53.154Z,2204.00
2018-04-28T10:09:53.159Z,2216.00
2018-04-28T10:10:53.158Z,2216.00
2018-04-28T10:11:53.161Z,2220.00
2018-04-28T10:12:53.166Z,2228.00
2018-04-28T10:13:53.172Z,2248.00
2018-04-28T10:14:53.173Z,2256.00
2018-04-28T10:15:53.218Z,2288.00
2018-04-28T10:16:53.226Z,2284.00
2018-04-28T10:17:53.189Z,2296.00
2018-04-28T10:18:53.191Z,2316.00
2018-04-28T10:19:53.195Z,2324.00
2018-04-28T10:20:53.199Z,2328.00
2018-04-28T10:21:53.214Z,2344.00
2018-04-28T10:22:53.204Z,2360.00
2018-04-28T10:23:53.207Z,2296.00
2018-04-28T10:24:53.217Z,2328.00
2018-04-28T10:25:53.215Z,2340.00
2018-04-28T10:26:53.234Z,2384.00
2018-04-28T10:27:53.233Z,2440.00
2018-04-28T10:28:53.238Z,2520.00
2018-04-28T10:29:53.238Z,2792.00
2018-04-28T10:30:53.297Z,19072.00
2018-04-28T10:31:53.912Z,41408.00
2018-04-28T10:32:53.264Z,46144.00
2018-04-28T10:33:53.250Z,43872.00
2018-04-28T10:34:53.256Z,45920.00
2018-04-28T10:35:53.268Z,48960.00
2018-04-28T10:36:53.266Z,51232.00
2018-04-28T10:37:53.273Z,53888.00
2018-04-28T10:38:53.293Z,53344.00
2018-04-28T10:39:53.287Z,50560.00
2018-04-28T10:40:53.292Z,47360.00
2018-04-28T10:41:53.300Z,46016.00
2018-04-28T10:42:53.311Z,46528.00
2018-04-28T10:43:53.317Z,48032.00
2018-04-28T10:44:53.344Z,52416.00
2018-04-28T10:45:53.338Z,50464.00
2018-04-28T10:46:53.343Z,51328.00
2018-04-28T10:47:53.354Z,51648.00
2018-04-28T10:48:53.366Z,54816.00
2018-04-28T10:49:53.490Z,56384.00
2018-04-28T10:50:53.391Z,55776.00
2018-04-28T10:51:53.633Z,55072.00
2018-04-28T10:52:53.424Z,54912.00
2018-04-28T10:53:53.497Z,55040.00
2018-04-28T10:54:53.431Z,55360.00
2018-04-28T10:55:53.442Z,50144.00
2018-04-28T10:56:53.497Z,42624.00
2018-04-28T10:57:53.464Z,33664.00
2018-04-28T10:58:53.502Z,14612.00
2018-04-28T10:59:53.492Z,16128.00
2018-04-28T11:00:53.501Z,10916.00
2018-04-28T11:01:53.525Z,5236.00
2018-04-28T11:02:54.381Z,3056.00
2018-04-28T11:03:53.740Z,2852.00
2018-04-28T11:04:53.549Z,2968.00
2018-04-28T11:05:53.590Z,3124.00
2018-04-28T11:06:53.610Z,2768.00
2018-04-28T11:07:53.598Z,2704.00
2018-04-28T11:08:53.602Z,2640.00
2018-04-28T11:09:53.625Z,2624.00
2018-04-28T11:10:53.612Z,2596.00
2018-04-28T11:11:53.648Z,2572.00
2018-04-28T11:12:53.639Z,2560.00
2018-04-28T11:13:53.688Z,2552.00
2018-04-28T11:14:53.653Z,2588.00
2018-04-28T11:15:53.660Z,2596.00
2018-04-28T11:16:53.672Z,2620.00
2018-04-28T11:17:53.788Z,2672.00
2018-04-28T11:18:53.695Z,2688.00
2018-04-28T11:19:53.752Z,2740.00
2018-04-28T11:20:53.701Z,2844.00
2018-04-28T11:21:53.708Z,2916.00
2018-04-28T11:22:53.727Z,2896.00
2018-04-28T11:23:53.727Z,2916.00
2018-04-28T11:24:53.731Z,2908.00
2018-04-28T11:25:53.772Z,2900.00
2018-04-28T11:26:53.746Z,2944.00
2018-04-28T11:27:53.750Z,2980.00
2018-04-28T11:28:53.817Z,3196.00
2018-04-28T11:29:53.765Z,3248.00
2018-04-28T11:30:53.771Z,3392.00
2018-04-28T11:31:53.852Z,3452.00
2018-04-28T11:32:53.846Z,3804.00
2018-04-28T11:33:54.766Z,3892.00
2018-04-28T11:34:53.844Z,3996.00
2018-04-28T11:35:53.877Z,4020.00
2018-04-28T11:36:53.882Z,3932.00
2018-04-28T11:37:53.868Z,3900.00
2018-04-28T11:38:53.830Z,4004.00
2018-04-28T11:39:53.833Z,4052.00
2018-04-28T11:40:53.838Z,4160.00
2018-04-28T11:41:53.838Z,4284.00
2018-04-28T11:42:53.844Z,4320.00
2018-04-28T11:43:53.849Z,4424.00
2018-04-28T11:44:53.860Z,4432.00
2018-04-28T11:45:53.862Z,4320.00
2018-04-28T11:46:53.868Z,4424.00
2018-04-28T11:47:53.875Z,4288.00
2018-04-28T11:48:53.880Z,4384.00
2018-04-28T11:49:53.887Z,4728.00
2018-04-28T11:50:53.977Z,4852.00
2018-04-28T11:51:53.900Z,3472.00
2018-04-28T11:52:53.904Z,3672.00
2018-04-28T11:53:53.909Z,4692.00
2018-04-28T11:54:53.924Z,4388.00
2018-04-28T11:55:55.260Z,4412.00
2018-04-28T11:56:53.930Z,4712.00
2018-04-28T11:57:53.934Z,4596.00
2018-04-28T11:58:54.012Z,4584.00
2018-04-28T11:59:53.951Z,4528.00
2018-04-28T12:00:53.951Z,4452.00
2018-04-28T12:01:53.957Z,4440.00
2018-04-28T12:02:53.969Z,4548.00
2018-04-28T12:03:54.019Z,4860.00
2018-04-28T12:04:54.010Z,4764.00
2018-04-28T12:05:54.023Z,4776.00
2018-04-28T12:06:54.031Z,4876.00
2018-04-28T12:07:54.030Z,4912.00
2018-04-28T12:08:54.031Z,4924.00
2018-04-28T12:09:54.099Z,4968.00
2018-04-28T12:10:54.045Z,5004.00
2018-04-28T12:11:54.024Z,5072.00
2018-04-28T12:12:54.030Z,5092.00
2018-04-28T12:13:54.032Z,5172.00
2018-04-28T12:14:54.044Z,5164.00
2018-04-28T12:15:54.041Z,5320.00
2018-04-28T12:16:54.049Z,5472.00
2018-04-28T12:17:54.059Z,5400.00
2018-04-28T12:18:54.059Z,5416.00
2018-04-28T12:19:54.069Z,5472.00
2018-04-28T12:20:54.084Z,5264.00
2018-04-28T12:21:54.076Z,5572.00
2018-04-28T12:22:54.094Z,5112.00
2018-04-28T12:23:54.096Z,4944.00
2018-04-28T12:24:54.100Z,4800.00
2018-04-28T12:25:54.108Z,4696.00
2018-04-28T12:26:54.108Z,4724.00